createdAt,value
2022-10-07T06:15:08.422Z,7.32
2022-10-07T06:25:08.506Z,7.71
2022-10-07T06:35:08.495Z,8.02
2022-10-07T06:45:08.457Z,8.35
2022-10-07T06:55:08.439Z,8.77
2022-10-07T07:05:08.764Z,9.18
2022-10-07T07:15:08.596Z,9.60
2022-10-07T07:25:08.587Z,10.06
2022-10-07T07:35:08.655Z,10.51
2022-10-07T07:45:08.596Z,10.83
2022-10-07T07:55:08.625Z,11.05
2022-10-07T08:05:08.665Z,11.62
2022-10-07T08:15:08.547Z,11.69
2022-10-07T08:25:08.677Z,12.04
2022-10-07T08:35:08.844Z,12.56
2022-10-07T08:45:08.814Z,13.14
2022-10-07T08:55:08.844Z,13.65
2022-10-07T09:05:09.035Z,14.01
2022-10-07T09:15:08.817Z,14.14
2022-10-07T09:25:11.281Z,13.82
2022-10-07T09:35:08.715Z,14.33
2022-10-07T09:45:09.910Z,14.77
2022-10-07T09:55:08.915Z,14.84
2022-10-07T10:05:08.660Z,14.93
2022-10-07T10:15:08.676Z,15.26
2022-10-07T10:25:08.975Z,15.33
2022-10-07T10:35:08.724Z,15.52
2022-10-07T10:45:08.778Z,15.64
2022-10-07T10:55:08.834Z,15.79
2022-10-07T11:05:08.794Z,16.29
2022-10-07T11:15:08.993Z,15.75
2022-10-07T11:25:08.782Z,16.13
2022-10-07T11:35:08.883Z,16.10
2022-10-07T11:45:08.851Z,16.56
2022-10-07T11:55:08.944Z,17.11
2022-10-07T12:05:09.113Z,16.82
2022-10-07T12:15:08.856Z,16.94
2022-10-07T12:25:11.147Z,16.79
2022-10-07T12:35:09.083Z,17.18
2022-10-07T12:45:08.925Z,16.95
2022-10-07T12:55:09.023Z,16.76
2022-10-07T13:05:08.988Z,17.31
2022-10-07T13:15:08.911Z,16.70
2022-10-07T13:25:09.226Z,16.95
2022-10-07T13:35:08.927Z,17.05
2022-10-07T13:45:08.925Z,17.29
2022-10-07T13:55:09.005Z,17.58
2022-10-07T14:05:09.120Z,17.35
2022-10-07T14:15:09.062Z,17.36
2022-10-07T14:25:09.161Z,17.46
2022-10-07T14:35:09.053Z,17.46
2022-10-07T14:45:09.190Z,17.46
2022-10-07T14:55:09.152Z,17.52
2022-10-07T15:05:09.246Z,17.30
2022-10-07T15:15:09.225Z,17.35
2022-10-07T15:25:09.155Z,17.17
2022-10-07T15:35:09.287Z,17.06
2022-10-07T15:45:09.192Z,16.85
2022-10-07T15:55:09.253Z,16.88
2022-10-07T16:05:09.211Z,16.49
2022-10-07T16:15:09.417Z,15.75
2022-10-07T16:25:09.236Z,15.01
2022-10-07T16:35:09.295Z,14.18
2022-10-07T16:45:09.364Z,13.00
2022-10-07T16:55:09.315Z,12.23
2022-10-07T17:05:09.348Z,11.66
2022-10-07T17:15:09.235Z,11.35
2022-10-07T17:25:09.342Z,12.11
2022-10-07T17:35:09.407Z,12.12
2022-10-07T17:45:09.356Z,12.00
2022-10-07T17:55:09.304Z,12.07
2022-10-07T18:05:09.443Z,11.24
2022-10-07T18:15:09.351Z,10.45
2022-10-07T18:25:09.342Z,9.62
2022-10-07T18:35:09.322Z,9.34
2022-10-07T18:45:09.334Z,9.08
2022-10-07T18:55:09.494Z,8.78
2022-10-07T19:05:09.941Z,8.78
2022-10-07T19:15:09.771Z,8.55
